sensor_id;sensor_type;location;lat;lon;timestamp;pressure;altitude;pressure_sealevel;temperature;humidity
22775;BME280;11554;51.106;3.684;2023-04-03T00:00:00;102904.17;;;-0.63;100.0
22775;BME280;11554;51.106;3.684;2023-04-03T00:05:00;102914.52999999998;;;-0.76;100.0
22775;BME280;11554;51.106;3.684;2023-04-03T00:10:00;102916.03;;;-0.78;100.0
22775;BME280;11554;51.106;3.684;2023-04-03T00:15:00;102913.98999999999;;;-0.87;100.0
22775;BME280;11554;51.106;3.684;2023-04-03T00:20:00;102914.64000000001;;;-0.83;100.0
22775;BME280;11554;51.106;3.684;2023-04-03T00:25:00;102916.36000000002;;;-1.01;100.0
22775;BME280;11554;51.106;3.684;2023-04-03T00:30:00;102912.54;;;-0.91;100.0
22775;BME280;11554;51.106;3.684;2023-04-03T00:35:00;102913.59999999999;;;-0.97;100.0
22775;BME280;11554;51.106;3.684;2023-04-03T00:40:00;102926.61;;;-1.04;100.0
22775;BME280;11554;51.106;3.684;2023-04-03T00:50:00;102927.34;;;-1.08;100.0
22775;BME280;11554;51.106;3.684;2023-04-03T00:55:01;102927.2;;;-1.17;100.0
22775;BME280;11554;51.106;3.684;2023-04-03T01:00:01;102930.16;;;-1.14;100.0
22775;BME280;11554;51.106;3.684;2023-04-03T01:05:00;102934.44;;;-1.17;100.0
22775;BME280;11554;51.106;3.684;2023-04-03T01:10:01;102940.88999999998;;;-1.18;100.0
22775;BME280;11554;51.106;3.684;2023-04-03T01:15:03;102933.89;;;-1.15;100.0
22775;BME280;11554;51.106;3.684;2023-04-03T01:25:00;102940.09000000001;;;-1.20;100.0
22775;BME280;11554;51.106;3.684;2023-04-03T01:30:00;102939.39;;;-1.06;100.0
22775;BME280;11554;51.106;3.684;2023-04-03T01:35:00;102931.81;;;-1.15;100.0
22775;BME280;11554;51.106;3.684;2023-04-03T01:40:00;102943.31999999999;;;-1.36;100.0
22775;BME280;11554;51.106;3.684;2023-04-03T01:45:00;102934.05;;;-1.43;100.0
22775;BME280;11554;51.106;3.684;2023-04-03T01:50:00;102939.03;;;-1.44;100.0
22775;BME280;11554;51.106;3.684;2023-04-03T01:55:00;102936.79;;;-1.51;100.0
22775;BME280;11554;51.106;3.684;2023-04-03T02:00:00;102936.38;;;-1.60;100.0
22775;BME280;11554;51.106;3.684;2023-04-03T02:05:00;102939.60999999999;;;-1.72;100.0
22775;BME280;11554;51.106;3.684;2023-04-03T02:10:00;102943.98000000001;;;-1.73;100.0
22775;BME280;11554;51.106;3.684;2023-04-03T02:15:00;102949.49999999999;;;-1.79;100.0
22775;BME280;11554;51.106;3.684;2023-04-03T02:20:00;102952.48999999999;;;-1.82;100.0
22775;BME280;11554;51.106;3.684;2023-04-03T02:25:00;102950.94999999998;;;-1.87;100.0
22775;BME280;11554;51.106;3.684;2023-04-03T02:30:00;102957.76000000001;;;-1.98;100.0
22775;BME280;11554;51.106;3.684;2023-04-03T02:35:00;102956.97;;;-2.06;100.0
22775;BME280;11554;51.106;3.684;2023-04-03T02:40:00;102957.13;;;-1.96;100.0
22775;BME280;11554;51.106;3.684;2023-04-03T02:45:00;102952.97;;;-2.03;100.0
22775;BME280;11554;51.106;3.684;2023-04-03T02:50:00;102954.93;;;-2.12;100.0
22775;BME280;11554;51.106;3.684;2023-04-03T02:55:00;102963.27000000002;;;-2.11;100.0
22775;BME280;11554;51.106;3.684;2023-04-03T03:00:00;102965.16999999998;;;-2.06;100.0
22775;BME280;11554;51.106;3.684;2023-04-03T03:05:00;102959.23;;;-1.87;100.0
22775;BME280;11554;51.106;3.684;2023-04-03T03:10:00;102967.7;;;-1.81;100.0
22775;BME280;11554;51.106;3.684;2023-04-03T03:15:00;102969.79;;;-1.81;100.0
22775;BME280;11554;51.106;3.684;2023-04-03T03:20:00;102972.13999999998;;;-1.87;100.0
22775;BME280;11554;51.106;3.684;2023-04-03T03:25:00;102973.17;;;-1.83;100.0
22775;BME280;11554;51.106;3.684;2023-04-03T03:30:00;102972.93999999999;;;-1.88;100.0
22775;BME280;11554;51.106;3.684;2023-04-03T03:35:00;102976.77;;;-1.96;100.0
22775;BME280;11554;51.106;3.684;2023-04-03T03:40:00;102972.57999999999;;;-1.93;100.0
22775;BME280;11554;51.106;3.684;2023-04-03T03:45:00;102975.17;;;-1.89;100.0
22775;BME280;11554;51.106;3.684;2023-04-03T03:50:00;102980.53;;;-1.94;100.0
22775;BME280;11554;51.106;3.684;2023-04-03T03:55:00;102978.31000000001;;;-2.10;100.0
22775;BME280;11554;51.106;3.684;2023-04-03T04:00:00;102978.37;;;-2.19;100.0
22775;BME280;11554;51.106;3.684;2023-04-03T04:05:00;102982.43;;;-2.21;100.0
22775;BME280;11554;51.106;3.684;2023-04-03T04:10:00;102986.11000000002;;;-2.28;100.0
22775;BME280;11554;51.106;3.684;2023-04-03T04:15:00;102992.63;;;-2.28;100.0
22775;BME280;11554;51.106;3.684;2023-04-03T04:20:00;102998.29;;;-2.37;100.0
22775;BME280;11554;51.106;3.684;2023-04-03T04:25:00;102997.92;;;-2.38;100.0
22775;BME280;11554;51.106;3.684;2023-04-03T04:30:00;103000.66999999998;;;-2.28;100.0
22775;BME280;11554;51.106;3.684;2023-04-03T04:35:00;102995.23999999999;;;-2.03;100.0
22775;BME280;11554;51.106;3.684;2023-04-03T04:40:00;102991.81000000001;;;-1.58;100.0
22775;BME280;11554;51.106;3.684;2023-04-03T04:45:00;102992.68;;;-1.29;100.0
22775;BME280;11554;51.106;3.684;2023-04-03T04:50:00;102995.23999999999;;;-1.06;100.0
22775;BME280;11554;51.106;3.684;2023-04-03T04:55:00;102993.90000000001;;;-0.79;100.0
22775;BME280;11554;51.106;3.684;2023-04-03T05:00:00;102994.19;;;-0.67;100.0
22775;BME280;11554;51.106;3.684;2023-04-03T05:05:00;102994.1;;;-0.90;100.0
22775;BME280;11554;51.106;3.684;2023-04-03T05:10:00;102990.87;;;-1.10;100.0
22775;BME280;11554;51.106;3.684;2023-04-03T05:15:00;102987.19;;;-0.97;100.0
22775;BME280;11554;51.106;3.684;2023-04-03T05:20:00;102991.42;;;-0.97;100.0
22775;BME280;11554;51.106;3.684;2023-04-03T05:25:00;102992.3;;;-0.72;100.0
22775;BME280;11554;51.106;3.684;2023-04-03T05:30:00;102995.90000000001;;;-0.66;100.0
22775;BME280;11554;51.106;3.684;2023-04-03T05:35:00;103003.16;;;-0.69;100.0
22775;BME280;11554;51.106;3.684;2023-04-03T05:40:00;103009.35999999999;;;-0.48;100.0
22775;BME280;11554;51.106;3.684;2023-04-03T05:45:00;103009.98999999999;;;-0.10;100.0
22775;BME280;11554;51.106;3.684;2023-04-03T05:50:00;103009.29000000001;;;0.31;100.0
22775;BME280;11554;51.106;3.684;2023-04-03T05:55:00;103012.22;;;0.81;100.0
22775;BME280;11554;51.106;3.684;2023-04-03T06:00:00;103018.26000000001;;;2.05;100.0
22775;BME280;11554;51.106;3.684;2023-04-03T06:05:00;103016.51999999999;;;3.33;100.0
22775;BME280;11554;51.106;3.684;2023-04-03T06:10:00;103013.31;;;4.25;100.0
22775;BME280;11554;51.106;3.684;2023-04-03T06:15:00;103013.49;;;5.02;100.0
22775;BME280;11554;51.106;3.684;2023-04-03T06:20:00;103014.09000000001;;;5.77;100.0
22775;BME280;11554;51.106;3.684;2023-04-03T06:25:00;103014.83;;;6.39;100.0
22775;BME280;11554;51.106;3.684;2023-04-03T06:30:00;103015.95;;;6.71;100.0
22775;BME280;11554;51.106;3.684;2023-04-03T06:35:00;103015.32999999999;;;7.30;100.0
22775;BME280;11554;51.106;3.684;2023-04-03T06:40:00;103013.06;;;7.84;100.0
22775;BME280;11554;51.106;3.684;2023-04-03T06:45:00;103015.39;;;8.60;100.0
22775;BME280;11554;51.106;3.684;2023-04-03T06:50:00;103022.17000000001;;;8.44;100.0
22775;BME280;11554;51.106;3.684;2023-04-03T06:55:00;103024.73;;;8.30;100.0
22775;BME280;11554;51.106;3.684;2023-04-03T07:00:00;103016.68999999999;;;8.92;100.0
22775;BME280;11554;51.106;3.684;2023-04-03T07:05:00;103026.92;;;9.21;100.0
22775;BME280;11554;51.106;3.684;2023-04-03T07:10:00;103029.98999999999;;;9.07;94.38
22775;BME280;11554;51.106;3.684;2023-04-03T07:15:00;103033.42;;;8.90;93.62
22775;BME280;11554;51.106;3.684;2023-04-03T07:20:00;103033.73999999999;;;8.75;92.27
22775;BME280;11554;51.106;3.684;2023-04-03T07:25:00;103033.78;;;8.69;91.41
22775;BME280;11554;51.106;3.684;2023-04-03T07:30:00;103032.58;;;8.36;89.65
22775;BME280;11554;51.106;3.684;2023-04-03T07:35:00;103035.18;;;8.32;90.59
22775;BME280;11554;51.106;3.684;2023-04-03T07:40:00;103035.9;;;8.36;88.58
22775;BME280;11554;51.106;3.684;2023-04-03T07:45:00;103045.77999999998;;;8.45;89.26
22775;BME280;11554;51.106;3.684;2023-04-03T07:50:00;103053.31000000001;;;8.39;88.84
22775;BME280;11554;51.106;3.684;2023-04-03T07:55:00;103056.69;;;8.21;84.41
22775;BME280;11554;51.106;3.684;2023-04-03T08:00:00;103060.79999999999;;;8.20;85.5
22775;BME280;11554;51.106;3.684;2023-04-03T08:05:00;103055.54;;;8.80;85.88
22775;BME280;11554;51.106;3.684;2023-04-03T08:10:00;103057.37;;;8.32;83.69
22775;BME280;11554;51.106;3.684;2023-04-03T08:15:00;103061.76000000001;;;8.08;82.02
22775;BME280;11554;51.106;3.684;2023-04-03T08:20:00;103057.69;;;7.97;84.2
22775;BME280;11554;51.106;3.684;2023-04-03T08:25:00;103058.47000000002;;;8.00;84.36
22775;BME280;11554;51.106;3.684;2023-04-03T08:30:00;103048.48999999999;;;7.99;82.82
22775;BME280;11554;51.106;3.684;2023-04-03T08:35:00;103052.59000000001;;;7.90;81.79
22775;BME280;11554;51.106;3.684;2023-04-03T08:40:00;103069.37000000001;;;7.72;81.53
22775;BME280;11554;51.106;3.684;2023-04-03T08:45:01;103063.49;;;7.52;83.77
22775;BME280;11554;51.106;3.684;2023-04-03T08:50:01;103065.27;;;8.12;84.16
22775;BME280;11554;51.106;3.684;2023-04-03T08:55:00;103065.34;;;8.12;82.61
22775;BME280;11554;51.106;3.684;2023-04-03T09:00:11;103066.48;;;8.47;81.03
22775;BME280;11554;51.106;3.684;2023-04-03T09:05:01;103058.31000000001;;;8.98;79.73
22775;BME280;11554;51.106;3.684;2023-04-03T09:10:00;103055.09;;;9.12;79.5
22775;BME280;11554;51.106;3.684;2023-04-03T09:15:02;103051.84;;;9.00;73.75
22775;BME280;11554;51.106;3.684;2023-04-03T09:20:02;103054.88;;;8.61;74.04
22775;BME280;11554;51.106;3.684;2023-04-03T09:25:02;103053.65999999999;;;8.93;76.4
22775;BME280;11554;51.106;3.684;2023-04-03T09:30:00;103045.58;;;8.93;74.39
22775;BME280;11554;51.106;3.684;2023-04-03T09:35:01;103055.25;;;9.59;75.23
22775;BME280;11554;51.106;3.684;2023-04-03T09:40:00;103048.48999999999;;;9.76;72.05
22775;BME280;11554;51.106;3.684;2023-04-03T09:45:00;103048.23;;;9.49;71.31
22775;BME280;11554;51.106;3.684;2023-04-03T09:55:03;103040.00000000001;;;9.59;66.66
22775;BME280;11554;51.106;3.684;2023-04-03T10:00:01;103042.26000000001;;;9.81;67.55
22775;BME280;11554;51.106;3.684;2023-04-03T10:05:00;103043.99;;;10.17;71.29
22775;BME280;11554;51.106;3.684;2023-04-03T10:10:02;103044.01000000001;;;9.94;67.8
22775;BME280;11554;51.106;3.684;2023-04-03T10:15:00;103033.02;;;10.20;69.08
22775;BME280;11554;51.106;3.684;2023-04-03T10:20:01;103030.22;;;10.02;66.34
22775;BME280;11554;51.106;3.684;2023-04-03T10:25:02;103025.93;;;11.13;68.29
22775;BME280;11554;51.106;3.684;2023-04-03T10:30:02;103021.85999999999;;;10.75;65.71
22775;BME280;11554;51.106;3.684;2023-04-03T10:35:02;103015.52999999998;;;10.68;66.47
22775;BME280;11554;51.106;3.684;2023-04-03T10:40:01;103014.27;;;10.76;64.49
22775;BME280;11554;51.106;3.684;2023-04-03T10:45:03;103007.09999999999;;;10.79;64.98
22775;BME280;11554;51.106;3.684;2023-04-03T10:50:02;103003.85;;;10.85;62.61
22775;BME280;11554;51.106;3.684;2023-04-03T10:55:02;102998.56;;;10.84;66.53
22775;BME280;11554;51.106;3.684;2023-04-03T11:00:02;103002.50000000001;;;10.65;63.23
22775;BME280;11554;51.106;3.684;2023-04-03T11:05:01;102998.34000000001;;;11.12;63.11
22775;BME280;11554;51.106;3.684;2023-04-03T11:10:02;102987.22;;;11.31;62.79
22775;BME280;11554;51.106;3.684;2023-04-03T11:15:00;102977.10999999999;;;11.62;61.69
22775;BME280;11554;51.106;3.684;2023-04-03T11:20:01;102969.74;;;11.35;60.27
22775;BME280;11554;51.106;3.684;2023-04-03T11:25:04;102966.32999999999;;;11.40;60.51
22775;BME280;11554;51.106;3.684;2023-04-03T11:30:00;102961.01000000001;;;11.03;60.52
22775;BME280;11554;51.106;3.684;2023-04-03T11:35:00;102947.42000000001;;;11.53;60.61
22775;BME280;11554;51.106;3.684;2023-04-03T11:40:01;102949.61;;;11.29;58.93
22775;BME280;11554;51.106;3.684;2023-04-03T11:50:01;102930.0;;;11.61;59.04
22775;BME280;11554;51.106;3.684;2023-04-03T11:55:00;102913.77;;;11.52;58.39
22775;BME280;11554;51.106;3.684;2023-04-03T12:00:00;102918.51999999999;;;11.57;56.66
22775;BME280;11554;51.106;3.684;2023-04-03T12:10:00;102907.93000000001;;;11.90;57.46
22775;BME280;11554;51.106;3.684;2023-04-03T12:20:00;102892.59;;;12.42;55.19
22775;BME280;11554;51.106;3.684;2023-04-03T12:25:00;102896.40999999999;;;12.53;53.59
22775;BME280;11554;51.106;3.684;2023-04-03T12:30:03;102892.31;;;12.66;54.55
22775;BME280;11554;51.106;3.684;2023-04-03T12:35:05;102895.73000000001;;;11.91;53.56
22775;BME280;11554;51.106;3.684;2023-04-03T12:40:01;102894.92;;;12.17;52.98
22775;BME280;11554;51.106;3.684;2023-04-03T12:45:01;102894.68999999999;;;12.31;53.24
22775;BME280;11554;51.106;3.684;2023-04-03T12:50:00;102888.7;;;12.36;51.55
22775;BME280;11554;51.106;3.684;2023-04-03T12:55:00;102893.68999999999;;;12.18;53.36
22775;BME280;11554;51.106;3.684;2023-04-03T13:00:00;102885.79;;;12.37;52.68
22775;BME280;11554;51.106;3.684;2023-04-03T13:05:04;102876.17;;;12.52;53.38
22775;BME280;11554;51.106;3.684;2023-04-03T13:10:03;102872.28;;;12.60;51.65
22775;BME280;11554;51.106;3.684;2023-04-03T13:15:01;102862.7;;;12.93;52.66
22775;BME280;11554;51.106;3.684;2023-04-03T13:20:11;102865.86;;;12.27;49.68
22775;BME280;11554;51.106;3.684;2023-04-03T13:25:01;102857.7;;;12.13;50.53
22775;BME280;11554;51.106;3.684;2023-04-03T13:30:01;102854.22000000002;;;12.23;52.45
22775;BME280;11554;51.106;3.684;2023-04-03T13:35:00;102846.94;;;12.44;51.66
22775;BME280;11554;51.106;3.684;2023-04-03T13:40:02;102856.97;;;12.02;50.41
22775;BME280;11554;51.106;3.684;2023-04-03T13:45:09;102857.5;;;12.53;49.61
22775;BME280;11554;51.106;3.684;2023-04-03T13:50:02;102847.40999999999;;;12.03;50.43
22775;BME280;11554;51.106;3.684;2023-04-03T13:55:02;102838.53;;;12.18;50.8
22775;BME280;11554;51.106;3.684;2023-04-03T14:00:18;102830.79000000001;;;12.09;50.47
22775;BME280;11554;51.106;3.684;2023-04-03T14:05:00;102833.65;;;12.12;48.54
22775;BME280;11554;51.106;3.684;2023-04-03T14:10:00;102835.06;;;12.14;50.27
22775;BME280;11554;51.106;3.684;2023-04-03T14:15:00;102823.16;;;12.62;48.46
22775;BME280;11554;51.106;3.684;2023-04-03T14:20:00;102824.62000000001;;;12.15;48.68
22775;BME280;11554;51.106;3.684;2023-04-03T14:25:00;102821.28;;;12.40;50.07
22775;BME280;11554;51.106;3.684;2023-04-03T14:30:00;102818.74;;;12.31;48.01
22775;BME280;11554;51.106;3.684;2023-04-03T14:35:00;102815.03;;;12.46;48.36
22775;BME280;11554;51.106;3.684;2023-04-03T14:40:01;102808.8;;;12.25;47.61
22775;BME280;11554;51.106;3.684;2023-04-03T14:45:01;102802.65999999999;;;12.16;47.04
22775;BME280;11554;51.106;3.684;2023-04-03T14:50:00;102797.89000000001;;;12.37;48.05
22775;BME280;11554;51.106;3.684;2023-04-03T14:55:01;102794.87;;;12.43;46.79
22775;BME280;11554;51.106;3.684;2023-04-03T15:00:00;102794.26000000001;;;12.31;45.6
22775;BME280;11554;51.106;3.684;2023-04-03T15:05:01;102802.66999999998;;;12.35;45.58
22775;BME280;11554;51.106;3.684;2023-04-03T15:10:01;102786.87;;;12.08;46.22
22775;BME280;11554;51.106;3.684;2023-04-03T15:15:00;102773.63;;;12.01;45.24
22775;BME280;11554;51.106;3.684;2023-04-03T15:20:00;102769.59999999999;;;12.08;46.36
22775;BME280;11554;51.106;3.684;2023-04-03T15:25:00;102771.70000000001;;;11.91;46.28
22775;BME280;11554;51.106;3.684;2023-04-03T15:30:00;102761.13;;;11.65;46.13
22775;BME280;11554;51.106;3.684;2023-04-03T15:35:00;102778.02999999998;;;12.00;46.55
22775;BME280;11554;51.106;3.684;2023-04-03T15:40:00;102772.53;;;11.95;47.45
22775;BME280;11554;51.106;3.684;2023-04-03T15:45:00;102773.54000000001;;;11.91;45.92
22775;BME280;11554;51.106;3.684;2023-04-03T15:50:00;102772.68;;;12.40;47.31
22775;BME280;11554;51.106;3.684;2023-04-03T15:55:00;102784.78;;;11.62;45.46
22775;BME280;11554;51.106;3.684;2023-04-03T16:00:00;102775.34000000001;;;11.61;46.23
22775;BME280;11554;51.106;3.684;2023-04-03T16:05:00;102784.97;;;11.28;45.18
22775;BME280;11554;51.106;3.684;2023-04-03T16:10:00;102777.31000000001;;;11.28;45.54
22775;BME280;11554;51.106;3.684;2023-04-03T16:15:00;102779.68000000001;;;11.45;46.67
22775;BME280;11554;51.106;3.684;2023-04-03T16:20:00;102780.6;;;11.37;46.21
22775;BME280;11554;51.106;3.684;2023-04-03T16:25:00;102780.22;;;11.28;46.85
22775;BME280;11554;51.106;3.684;2023-04-03T16:30:00;102777.66999999998;;;11.55;47.41
22775;BME280;11554;51.106;3.684;2023-04-03T16:35:00;102775.79000000001;;;11.46;46.65
22775;BME280;11554;51.106;3.684;2023-04-03T16:40:00;102773.47;;;11.00;46.55
22775;BME280;11554;51.106;3.684;2023-04-03T16:45:00;102767.08000000002;;;11.07;46.64
22775;BME280;11554;51.106;3.684;2023-04-03T16:50:00;102765.39;;;10.66;46.73
22775;BME280;11554;51.106;3.684;2023-04-03T16:55:00;102766.22;;;10.69;46.95
22775;BME280;11554;51.106;3.684;2023-04-03T17:00:00;102771.77999999998;;;10.41;46.27
22775;BME280;11554;51.106;3.684;2023-04-03T17:05:00;102775.84;;;10.02;46.45
22775;BME280;11554;51.106;3.684;2023-04-03T17:10:00;102774.55;;;9.98;47.82
22775;BME280;11554;51.106;3.684;2023-04-03T17:15:00;102778.89;;;9.68;47.99
22775;BME280;11554;51.106;3.684;2023-04-03T17:20:00;102780.81;;;9.50;48.64
22775;BME280;11554;51.106;3.684;2023-04-03T17:25:00;102775.68000000001;;;9.23;49.01
22775;BME280;11554;51.106;3.684;2023-04-03T17:30:00;102782.26;;;9.04;50.03
22775;BME280;11554;51.106;3.684;2023-04-03T17:35:00;102784.31;;;8.84;49.67
22775;BME280;11554;51.106;3.684;2023-04-03T17:40:00;102793.64;;;8.70;51.08
22775;BME280;11554;51.106;3.684;2023-04-03T17:45:00;102795.81000000001;;;8.54;51.28
22775;BME280;11554;51.106;3.684;2023-04-03T17:50:00;102797.28;;;8.41;52.5
22775;BME280;11554;51.106;3.684;2023-04-03T17:55:00;102798.65;;;8.24;53.24
22775;BME280;11554;51.106;3.684;2023-04-03T18:00:00;102794.68999999999;;;8.11;53.71
22775;BME280;11554;51.106;3.684;2023-04-03T18:05:00;102798.6;;;7.95;54.98
22775;BME280;11554;51.106;3.684;2023-04-03T18:10:00;102803.67000000001;;;7.81;56.56
22775;BME280;11554;51.106;3.684;2023-04-03T18:15:00;102805.07;;;7.74;57.06
22775;BME280;11554;51.106;3.684;2023-04-03T18:20:00;102806.93000000001;;;7.56;58.17
22775;BME280;11554;51.106;3.684;2023-04-03T18:25:00;102811.23999999999;;;7.35;59.62
22775;BME280;11554;51.106;3.684;2023-04-03T18:30:00;102810.58;;;7.29;59.08
22775;BME280;11554;51.106;3.684;2023-04-03T18:35:00;102813.04000000001;;;7.06;60.81
22775;BME280;11554;51.106;3.684;2023-04-03T18:40:00;102811.94;;;6.86;61.62
22775;BME280;11554;51.106;3.684;2023-04-03T18:45:01;102821.62000000001;;;6.71;62.23
22775;BME280;11554;51.106;3.684;2023-04-03T18:50:00;102820.59;;;6.58;63.18
22775;BME280;11554;51.106;3.684;2023-04-03T18:55:00;102823.36;;;6.45;63.53
22775;BME280;11554;51.106;3.684;2023-04-03T19:00:00;102825.54000000001;;;6.32;64.2
22775;BME280;11554;51.106;3.684;2023-04-03T19:05:00;102827.19;;;6.15;65.28
22775;BME280;11554;51.106;3.684;2023-04-03T19:10:00;102828.89;;;6.08;65.73
22775;BME280;11554;51.106;3.684;2023-04-03T19:15:00;102827.29;;;5.96;66.25
22775;BME280;11554;51.106;3.684;2023-04-03T19:20:00;102829.58000000002;;;5.87;66.87
22775;BME280;11554;51.106;3.684;2023-04-03T19:25:00;102837.48000000001;;;5.87;66.91
22775;BME280;11554;51.106;3.684;2023-04-03T19:30:00;102840.91;;;5.76;67.52
22775;BME280;11554;51.106;3.684;2023-04-03T19:35:00;102842.76;;;5.75;68.08
22775;BME280;11554;51.106;3.684;2023-04-03T19:40:00;102846.37;;;5.63;68.27
22775;BME280;11554;51.106;3.684;2023-04-03T19:45:00;102849.48;;;5.62;68.14
22775;BME280;11554;51.106;3.684;2023-04-03T19:50:00;102850.09999999999;;;5.61;68.61
22775;BME280;11554;51.106;3.684;2023-04-03T19:55:00;102853.38999999998;;;5.59;68.77
22775;BME280;11554;51.106;3.684;2023-04-03T20:00:00;102854.61;;;5.54;68.94
22775;BME280;11554;51.106;3.684;2023-04-03T20:05:00;102850.66999999998;;;5.49;69.14
22775;BME280;11554;51.106;3.684;2023-04-03T20:10:00;102852.31000000001;;;5.29;69.89
22775;BME280;11554;51.106;3.684;2023-04-03T20:15:00;102857.02000000002;;;5.34;69.84
22775;BME280;11554;51.106;3.684;2023-04-03T20:20:00;102860.51999999999;;;5.23;70.29
22775;BME280;11554;51.106;3.684;2023-04-03T20:25:01;102864.95;;;5.13;70.54
22775;BME280;11554;51.106;3.684;2023-04-03T20:30:00;102863.20000000001;;;5.12;70.48
22775;BME280;11554;51.106;3.684;2023-04-03T20:35:00;102869.54000000001;;;5.06;70.7
22775;BME280;11554;51.106;3.684;2023-04-03T20:40:00;102865.41;;;5.22;70.03
22775;BME280;11554;51.106;3.684;2023-04-03T20:45:00;102865.38;;;5.11;70.54
22775;BME280;11554;51.106;3.684;2023-04-03T20:50:00;102866.49;;;5.03;70.99
22775;BME280;11554;51.106;3.684;2023-04-03T20:55:00;102866.24999999999;;;4.88;71.71
22775;BME280;11554;51.106;3.684;2023-04-03T21:00:00;102870.94;;;4.84;71.54
22775;BME280;11554;51.106;3.684;2023-04-03T21:05:00;102877.74999999999;;;4.78;71.83
22775;BME280;11554;51.106;3.684;2023-04-03T21:20:00;102884.27999999998;;;4.58;72.03
22775;BME280;11554;51.106;3.684;2023-04-03T21:25:00;102886.38;;;4.50;72.38
22775;BME280;11554;51.106;3.684;2023-04-03T21:30:00;102886.93000000001;;;4.47;72.24
22775;BME280;11554;51.106;3.684;2023-04-03T21:35:00;102886.06;;;4.47;72.48
22775;BME280;11554;51.106;3.684;2023-04-03T21:40:00;102882.41;;;4.39;72.6
22775;BME280;11554;51.106;3.684;2023-04-03T21:45:00;102883.54;;;4.32;72.9
22775;BME280;11554;51.106;3.684;2023-04-03T21:50:00;102889.5;;;4.37;72.64
22775;BME280;11554;51.106;3.684;2023-04-03T21:55:00;102882.32;;;4.20;73.46
22775;BME280;11554;51.106;3.684;2023-04-03T22:00:00;102876.26000000001;;;4.19;73.33
22775;BME280;11554;51.106;3.684;2023-04-03T22:05:00;102858.25;;;4.25;73.01
22775;BME280;11554;51.106;3.684;2023-04-03T22:10:00;102859.73;;;4.21;73.45
22775;BME280;11554;51.106;3.684;2023-04-03T22:15:00;102856.52;;;4.09;73.92
22775;BME280;11554;51.106;3.684;2023-04-03T22:20:00;102857.65;;;4.08;74.24
22775;BME280;11554;51.106;3.684;2023-04-03T22:25:00;102866.43999999999;;;4.03;74.26
22775;BME280;11554;51.106;3.684;2023-04-03T22:30:00;102862.66;;;3.90;74.96
22775;BME280;11554;51.106;3.684;2023-04-03T22:35:00;102862.59;;;3.79;75.28
22775;BME280;11554;51.106;3.684;2023-04-03T22:40:00;102867.06999999999;;;3.75;75.19
22775;BME280;11554;51.106;3.684;2023-04-03T22:45:00;102863.92000000001;;;3.74;75.35
22775;BME280;11554;51.106;3.684;2023-04-03T22:50:00;102870.46;;;3.60;75.96
22775;BME280;11554;51.106;3.684;2023-04-03T22:55:00;102871.57999999999;;;3.63;75.39
22775;BME280;11554;51.106;3.684;2023-04-03T23:00:00;102873.73;;;3.61;75.37
22775;BME280;11554;51.106;3.684;2023-04-03T23:05:00;102876.2;;;3.59;75.13
22775;BME280;11554;51.106;3.684;2023-04-03T23:10:00;102879.14000000001;;;3.46;75.31
22775;BME280;11554;51.106;3.684;2023-04-03T23:15:00;102874.05000000002;;;3.52;74.69
22775;BME280;11554;51.106;3.684;2023-04-03T23:20:00;102870.87;;;3.52;74.66
22775;BME280;11554;51.106;3.684;2023-04-03T23:25:00;102864.06999999999;;;3.53;74.12
22775;BME280;11554;51.106;3.684;2023-04-03T23:30:00;102857.81;;;3.56;74.0
22775;BME280;11554;51.106;3.684;2023-04-03T23:35:00;102857.26;;;3.48;74.28
22775;BME280;11554;51.106;3.684;2023-04-03T23:40:00;102857.53;;;3.34;74.84
22775;BME280;11554;51.106;3.684;2023-04-03T23:45:00;102862.62999999999;;;3.28;75.02
22775;BME280;11554;51.106;3.684;2023-04-03T23:50:00;102860.35999999999;;;3.19;75.54
22775;BME280;11554;51.106;3.684;2023-04-03T23:55:00;102859.35999999999;;;3.07;75.94
